sensor_id;sensor_type;location;lat;lon;timestamp;pressure;altitude;pressure_sealevel;temperature;humidity
12178;BME280;6152;48.728;9.256;2023-04-08T00:01:49;97316.66;;;7.34;100.00
12178;BME280;6152;48.728;9.256;2023-04-08T00:04:18;97314.25;;;7.29;100.00
12178;BME280;6152;48.728;9.256;2023-04-08T00:06:44;97312.44;;;7.31;100.00
12178;BME280;6152;48.728;9.256;2023-04-08T00:09:10;97313.34;;;7.30;100.00
12178;BME280;6152;48.728;9.256;2023-04-08T00:11:36;97317.88;;;7.25;100.00
12178;BME280;6152;48.728;9.256;2023-04-08T00:14:03;97319.72;;;7.23;100.00
12178;BME280;6152;48.728;9.256;2023-04-08T00:16:29;97314.44;;;7.25;100.00
12178;BME280;6152;48.728;9.256;2023-04-08T00:18:55;97322.91;;;7.28;100.00
12178;BME280;6152;48.728;9.256;2023-04-08T00:21:22;97312.84;;;7.22;100.00
12178;BME280;6152;48.728;9.256;2023-04-08T00:23:48;97315.81;;;7.33;100.00
12178;BME280;6152;48.728;9.256;2023-04-08T00:26:14;97316.84;;;7.29;100.00
12178;BME280;6152;48.728;9.256;2023-04-08T00:28:41;97311.28;;;7.18;100.00
12178;BME280;6152;48.728;9.256;2023-04-08T00:31:08;97308.44;;;7.24;100.00
12178;BME280;6152;48.728;9.256;2023-04-08T00:33:34;97313.69;;;7.23;100.00
12178;BME280;6152;48.728;9.256;2023-04-08T00:36:01;97317.44;;;7.16;100.00
12178;BME280;6152;48.728;9.256;2023-04-08T00:38:27;97313.25;;;7.13;100.00
12178;BME280;6152;48.728;9.256;2023-04-08T00:40:53;97306.66;;;7.06;100.00
12178;BME280;6152;48.728;9.256;2023-04-08T00:43:19;97321.47;;;7.02;100.00
12178;BME280;6152;48.728;9.256;2023-04-08T00:45:46;97316.38;;;7.01;100.00
12178;BME280;6152;48.728;9.256;2023-04-08T00:48:13;97315.47;;;7.02;100.00
12178;BME280;6152;48.728;9.256;2023-04-08T00:50:39;97325.94;;;6.99;100.00
12178;BME280;6152;48.728;9.256;2023-04-08T00:53:05;97332.78;;;7.00;100.00
12178;BME280;6152;48.728;9.256;2023-04-08T00:55:31;97337.16;;;6.99;100.00
12178;BME280;6152;48.728;9.256;2023-04-08T00:57:57;97337.00;;;7.02;100.00
12178;BME280;6152;48.728;9.256;2023-04-08T01:00:24;97331.25;;;6.96;100.00
12178;BME280;6152;48.728;9.256;2023-04-08T01:03:13;97331.44;;;6.91;100.00
12178;BME280;6152;48.728;9.256;2023-04-08T01:08:17;97322.72;;;6.94;100.00
12178;BME280;6152;48.728;9.256;2023-04-08T01:10:44;97328.53;;;6.99;100.00
12178;BME280;6152;48.728;9.256;2023-04-08T01:13:17;97328.59;;;6.97;100.00
12178;BME280;6152;48.728;9.256;2023-04-08T01:15:45;97329.69;;;6.92;100.00
12178;BME280;6152;48.728;9.256;2023-04-08T01:18:13;97326.31;;;6.90;100.00
12178;BME280;6152;48.728;9.256;2023-04-08T01:20:41;97331.50;;;6.90;100.00
12178;BME280;6152;48.728;9.256;2023-04-08T01:25:59;97331.84;;;7.02;100.00
12178;BME280;6152;48.728;9.256;2023-04-08T01:28:28;97340.44;;;7.03;100.00
12178;BME280;6152;48.728;9.256;2023-04-08T01:30:58;97331.25;;;6.96;100.00
12178;BME280;6152;48.728;9.256;2023-04-08T01:33:27;97330.28;;;6.98;100.00
12178;BME280;6152;48.728;9.256;2023-04-08T01:35:55;97334.59;;;6.98;100.00
12178;BME280;6152;48.728;9.256;2023-04-08T01:38:24;97327.75;;;6.97;100.00
12178;BME280;6152;48.728;9.256;2023-04-08T01:40:53;97327.16;;;6.90;100.00
12178;BME280;6152;48.728;9.256;2023-04-08T01:43:21;97331.25;;;6.96;100.00
12178;BME280;6152;48.728;9.256;2023-04-08T01:45:48;97327.75;;;6.97;100.00
12178;BME280;6152;48.728;9.256;2023-04-08T01:48:19;97328.00;;;6.91;100.00
12178;BME280;6152;48.728;9.256;2023-04-08T01:50:45;97328.00;;;6.91;100.00
12178;BME280;6152;48.728;9.256;2023-04-08T01:53:12;97334.22;;;6.87;100.00
12178;BME280;6152;48.728;9.256;2023-04-08T01:55:40;97331.97;;;6.99;100.00
12178;BME280;6152;48.728;9.256;2023-04-08T01:58:11;97328.00;;;6.91;100.00
12178;BME280;6152;48.728;9.256;2023-04-08T02:00:40;97326.28;;;6.91;100.00
12178;BME280;6152;48.728;9.256;2023-04-08T02:03:11;97321.81;;;6.95;100.00
12178;BME280;6152;48.728;9.256;2023-04-08T02:05:39;97320.13;;;6.94;100.00
12178;BME280;6152;48.728;9.256;2023-04-08T02:08:05;97325.69;;;6.85;100.00
12178;BME280;6152;48.728;9.256;2023-04-08T02:10:31;97324.91;;;6.83;100.00
12178;BME280;6152;48.728;9.256;2023-04-08T02:12:57;97327.56;;;6.81;100.00
12178;BME280;6152;48.728;9.256;2023-04-08T02:15:26;97324.91;;;6.83;100.00
12178;BME280;6152;48.728;9.256;2023-04-08T02:17:55;97330.16;;;6.81;100.00
12178;BME280;6152;48.728;9.256;2023-04-08T02:20:37;97327.50;;;6.83;100.00
12178;BME280;6152;48.728;9.256;2023-04-08T02:23:20;97329.44;;;6.78;100.00
12178;BME280;6152;48.728;9.256;2023-04-08T02:25:48;97330.47;;;6.74;100.00
12178;BME280;6152;48.728;9.256;2023-04-08T02:28:17;97330.47;;;6.74;100.00
12178;BME280;6152;48.728;9.256;2023-04-08T02:30:49;97325.16;;;6.77;100.00
12178;BME280;6152;48.728;9.256;2023-04-08T02:33:18;97328.91;;;6.70;100.00
12178;BME280;6152;48.728;9.256;2023-04-08T02:35:47;97322.91;;;6.69;100.00
12178;BME280;6152;48.728;9.256;2023-04-08T02:38:14;97322.91;;;6.69;100.00
12178;BME280;6152;48.728;9.256;2023-04-08T02:40:41;97325.25;;;6.75;100.00
12178;BME280;6152;48.728;9.256;2023-04-08T02:43:07;97328.69;;;6.76;100.00
12178;BME280;6152;48.728;9.256;2023-04-08T02:45:51;97329.84;;;6.69;100.00
12178;BME280;6152;48.728;9.256;2023-04-08T02:48:17;97331.81;;;6.62;100.00
12178;BME280;6152;48.728;9.256;2023-04-08T02:50:44;97331.00;;;6.62;100.00
12178;BME280;6152;48.728;9.256;2023-04-08T02:53:10;97331.09;;;6.58;100.00
12178;BME280;6152;48.728;9.256;2023-04-08T02:55:36;97338.84;;;6.58;100.00
12178;BME280;6152;48.728;9.256;2023-04-08T02:58:02;97325.69;;;6.65;100.00
12178;BME280;6152;48.728;9.256;2023-04-08T03:00:29;97337.13;;;6.59;100.00
12178;BME280;6152;48.728;9.256;2023-04-08T03:02:55;97336.25;;;6.58;100.00
12178;BME280;6152;48.728;9.256;2023-04-08T03:05:21;97341.56;;;6.55;100.00
12178;BME280;6152;48.728;9.256;2023-04-08T03:07:47;97340.75;;;6.55;100.00
12178;BME280;6152;48.728;9.256;2023-04-08T03:10:13;97338.09;;;6.56;100.00
12178;BME280;6152;48.728;9.256;2023-04-08T03:12:39;97332.19;;;6.53;100.00
12178;BME280;6152;48.728;9.256;2023-04-08T03:15:06;97341.56;;;6.55;100.00
12178;BME280;6152;48.728;9.256;2023-04-08T03:17:32;97340.03;;;6.51;100.00
12178;BME280;6152;48.728;9.256;2023-04-08T03:20:00;97334.75;;;6.54;100.00
12178;BME280;6152;48.728;9.256;2023-04-08T03:22:26;97331.09;;;6.58;100.00
12178;BME280;6152;48.728;9.256;2023-04-08T03:24:52;97334.66;;;6.56;100.00
12178;BME280;6152;48.728;9.256;2023-04-08T03:27:18;97340.03;;;6.51;100.00
12178;BME280;6152;48.728;9.256;2023-04-08T03:29:44;97346.50;;;6.62;100.00
12178;BME280;6152;48.728;9.256;2023-04-08T03:32:11;97346.56;;;6.60;100.00
12178;BME280;6152;48.728;9.256;2023-04-08T03:34:37;97339.91;;;6.54;100.00
12178;BME280;6152;48.728;9.256;2023-04-08T03:37:03;97346.81;;;6.54;100.00
12178;BME280;6152;48.728;9.256;2023-04-08T03:39:29;97346.88;;;6.52;100.00
12178;BME280;6152;48.728;9.256;2023-04-08T03:41:56;97330.94;;;6.41;100.00
12178;BME280;6152;48.728;9.256;2023-04-08T03:44:24;97347.78;;;6.51;100.00
12178;BME280;6152;48.728;9.256;2023-04-08T03:46:51;97347.00;;;6.49;100.00
12178;BME280;6152;48.728;9.256;2023-04-08T03:49:17;97347.00;;;6.49;100.00
12178;BME280;6152;48.728;9.256;2023-04-08T03:51:43;97349.31;;;6.55;100.00
12178;BME280;6152;48.728;9.256;2023-04-08T03:54:09;97336.47;;;6.54;100.00
12178;BME280;6152;48.728;9.256;2023-04-08T03:56:35;97334.75;;;6.54;100.00
12178;BME280;6152;48.728;9.256;2023-04-08T03:59:01;97340.94;;;6.50;100.00
12178;BME280;6152;48.728;9.256;2023-04-08T04:01:28;97339.38;;;6.46;100.00
12178;BME280;6152;48.728;9.256;2023-04-08T04:03:55;97338.69;;;6.41;100.00
12178;BME280;6152;48.728;9.256;2023-04-08T04:06:21;97337.03;;;6.40;100.00
12178;BME280;6152;48.728;9.256;2023-04-08T04:08:47;97340.66;;;6.36;100.00
12178;BME280;6152;48.728;9.256;2023-04-08T04:11:15;97347.50;;;6.37;100.00
12178;BME280;6152;48.728;9.256;2023-04-08T04:13:41;97333.78;;;6.35;100.00
12178;BME280;6152;48.728;9.256;2023-04-08T04:16:07;97346.72;;;6.35;100.00
12178;BME280;6152;48.728;9.256;2023-04-08T04:18:33;97337.97;;;6.38;100.00
12178;BME280;6152;48.728;9.256;2023-04-08T04:20:59;97340.78;;;6.33;100.00
12178;BME280;6152;48.728;9.256;2023-04-08T04:23:25;97341.63;;;6.34;100.00
12178;BME280;6152;48.728;9.256;2023-04-08T04:25:51;97341.53;;;6.35;100.00
12178;BME280;6152;48.728;9.256;2023-04-08T04:28:17;97346.66;;;6.37;100.00
12178;BME280;6152;48.728;9.256;2023-04-08T04:30:43;97344.00;;;6.38;100.00
12178;BME280;6152;48.728;9.256;2023-04-08T04:33:10;97345.69;;;6.39;100.00
12178;BME280;6152;48.728;9.256;2023-04-08T04:35:37;97350.09;;;6.37;100.00
12178;BME280;6152;48.728;9.256;2023-04-08T04:38:04;97352.41;;;6.43;100.00
12178;BME280;6152;48.728;9.256;2023-04-08T04:40:35;97357.72;;;6.40;100.00
12178;BME280;6152;48.728;9.256;2023-04-08T04:43:01;97356.03;;;6.39;100.00
12178;BME280;6152;48.728;9.256;2023-04-08T04:45:27;97356.91;;;6.38;100.00
12178;BME280;6152;48.728;9.256;2023-04-08T04:47:53;97356.91;;;6.38;100.00
12178;BME280;6152;48.728;9.256;2023-04-08T04:50:20;97357.72;;;6.40;100.00
12178;BME280;6152;48.728;9.256;2023-04-08T04:52:46;97361.75;;;6.47;100.00
12178;BME280;6152;48.728;9.256;2023-04-08T04:55:12;97364.47;;;6.44;100.00
12178;BME280;6152;48.728;9.256;2023-04-08T04:57:40;97369.50;;;6.47;100.00
12178;BME280;6152;48.728;9.256;2023-04-08T05:00:07;97366.31;;;6.41;100.00
12178;BME280;6152;48.728;9.256;2023-04-08T05:02:33;97364.56;;;6.41;100.00
12178;BME280;6152;48.728;9.256;2023-04-08T05:05:00;97372.97;;;6.46;100.00
12178;BME280;6152;48.728;9.256;2023-04-08T05:07:26;97373.88;;;6.45;100.00
12178;BME280;6152;48.728;9.256;2023-04-08T05:09:52;97378.44;;;6.39;100.00
12178;BME280;6152;48.728;9.256;2023-04-08T05:12:19;97380.19;;;6.38;100.00
12178;BME280;6152;48.728;9.256;2023-04-08T05:14:45;97388.25;;;6.31;100.00
12178;BME280;6152;48.728;9.256;2023-04-08T05:17:11;97385.44;;;6.37;100.00
12178;BME280;6152;48.728;9.256;2023-04-08T05:19:37;97385.47;;;6.35;100.00
12178;BME280;6152;48.728;9.256;2023-04-08T05:22:03;97385.59;;;6.32;100.00
12178;BME280;6152;48.728;9.256;2023-04-08T05:24:30;97382.38;;;6.27;100.00
12178;BME280;6152;48.728;9.256;2023-04-08T05:26:56;97388.47;;;6.25;100.00
12178;BME280;6152;48.728;9.256;2023-04-08T05:29:22;97384.16;;;6.25;100.00
12178;BME280;6152;48.728;9.256;2023-04-08T05:31:49;97392.72;;;6.27;100.00
12178;BME280;6152;48.728;9.256;2023-04-08T05:34:15;97384.16;;;6.25;100.00
12178;BME280;6152;48.728;9.256;2023-04-08T05:36:48;97391.78;;;6.28;100.00
12178;BME280;6152;48.728;9.256;2023-04-08T05:39:17;97397.97;;;6.24;100.00
12178;BME280;6152;48.728;9.256;2023-04-08T05:41:44;97399.53;;;6.28;100.00
12178;BME280;6152;48.728;9.256;2023-04-08T05:44:11;97399.41;;;6.31;100.00
12178;BME280;6152;48.728;9.256;2023-04-08T05:46:38;97398.53;;;6.32;100.00
12178;BME280;6152;48.728;9.256;2023-04-08T05:49:04;97394.16;;;6.34;100.00
12178;BME280;6152;48.728;9.256;2023-04-08T05:51:30;97401.78;;;6.37;100.00
12178;BME280;6152;48.728;9.256;2023-04-08T05:53:56;97401.72;;;6.39;100.00
12178;BME280;6152;48.728;9.256;2023-04-08T05:56:22;97399.06;;;6.40;100.00
12178;BME280;6152;48.728;9.256;2023-04-08T05:58:48;97405.59;;;6.49;100.00
12178;BME280;6152;48.728;9.256;2023-04-08T06:01:14;97414.34;;;6.46;100.00
12178;BME280;6152;48.728;9.256;2023-04-08T06:03:40;97415.19;;;6.47;100.00
12178;BME280;6152;48.728;9.256;2023-04-08T06:06:10;97409.63;;;6.56;100.00
12178;BME280;6152;48.728;9.256;2023-04-08T06:08:39;97422.78;;;6.51;100.00
12178;BME280;6152;48.728;9.256;2023-04-08T06:11:06;97420.53;;;6.42;100.00
12178;BME280;6152;48.728;9.256;2023-04-08T06:13:32;97425.53;;;6.47;100.00
12178;BME280;6152;48.728;9.256;2023-04-08T06:16:00;97426.50;;;6.44;100.00
12178;BME280;6152;48.728;9.256;2023-04-08T06:18:34;97431.28;;;6.53;100.00
12178;BME280;6152;48.728;9.256;2023-04-08T06:21:00;97437.44;;;6.51;100.00
12178;BME280;6152;48.728;9.256;2023-04-08T06:23:26;97434.66;;;6.55;100.00
12178;BME280;6152;48.728;9.256;2023-04-08T06:25:53;97435.50;;;6.56;100.00
12178;BME280;6152;48.728;9.256;2023-04-08T06:28:19;97439.00;;;6.55;100.00
12178;BME280;6152;48.728;9.256;2023-04-08T06:30:45;97437.56;;;6.48;100.00
12178;BME280;6152;48.728;9.256;2023-04-08T06:33:11;97433.19;;;6.48;100.00
12178;BME280;6152;48.728;9.256;2023-04-08T06:35:37;97437.09;;;6.58;100.00
12178;BME280;6152;48.728;9.256;2023-04-08T06:38:04;97440.91;;;6.72;100.00
12178;BME280;6152;48.728;9.256;2023-04-08T06:40:30;97440.47;;;6.82;100.00
12178;BME280;6152;48.728;9.256;2023-04-08T06:42:56;97442.09;;;6.85;100.00
12178;BME280;6152;48.728;9.256;2023-04-08T06:45:22;97441.97;;;6.88;100.00
12178;BME280;6152;48.728;9.256;2023-04-08T06:47:48;97445.22;;;6.93;100.00
12178;BME280;6152;48.728;9.256;2023-04-08T06:50:15;97446.56;;;7.01;100.00
12178;BME280;6152;48.728;9.256;2023-04-08T06:52:41;97447.97;;;7.10;100.00
12178;BME280;6152;48.728;9.256;2023-04-08T06:55:07;97454.66;;;7.14;100.00
12178;BME280;6152;48.728;9.256;2023-04-08T06:57:33;97453.72;;;7.17;100.00
12178;BME280;6152;48.728;9.256;2023-04-08T06:59:59;97459.47;;;7.23;100.00
12178;BME280;6152;48.728;9.256;2023-04-08T07:02:26;97457.78;;;7.22;100.00
12178;BME280;6152;48.728;9.256;2023-04-08T07:04:52;97459.72;;;7.17;100.00
12178;BME280;6152;48.728;9.256;2023-04-08T07:07:18;97462.25;;;7.19;100.00
12178;BME280;6152;48.728;9.256;2023-04-08T07:09:44;97463.09;;;7.19;100.00
12178;BME280;6152;48.728;9.256;2023-04-08T07:12:11;97461.41;;;7.18;100.00
12178;BME280;6152;48.728;9.256;2023-04-08T07:14:38;97460.44;;;7.21;100.00
12178;BME280;6152;48.728;9.256;2023-04-08T07:17:04;97462.84;;;7.25;100.00
12178;BME280;6152;48.728;9.256;2023-04-08T07:19:30;97461.41;;;7.18;100.00
12178;BME280;6152;48.728;9.256;2023-04-08T07:21:57;97467.25;;;7.23;100.00
12178;BME280;6152;48.728;9.256;2023-04-08T07:24:23;97472.09;;;7.31;100.00
12178;BME280;6152;48.728;9.256;2023-04-08T07:26:49;97471.75;;;7.38;100.00
12178;BME280;6152;48.728;9.256;2023-04-08T07:29:16;97475.19;;;7.39;100.00
12178;BME280;6152;48.728;9.256;2023-04-08T07:31:43;97482.25;;;7.35;100.00
12178;BME280;6152;48.728;9.256;2023-04-08T07:34:09;97477.06;;;7.35;100.00
12178;BME280;6152;48.728;9.256;2023-04-08T07:36:35;97481.22;;;7.39;100.00
12178;BME280;6152;48.728;9.256;2023-04-08T07:39:01;97480.00;;;7.48;100.00
12178;BME280;6152;48.728;9.256;2023-04-08T07:41:28;97474.47;;;7.76;100.00
12178;BME280;6152;48.728;9.256;2023-04-08T07:43:54;97483.88;;;7.97;100.00
12178;BME280;6152;48.728;9.256;2023-04-08T07:46:21;97484.41;;;8.05;100.00
12178;BME280;6152;48.728;9.256;2023-04-08T07:48:47;97480.81;;;8.07;100.00
12178;BME280;6152;48.728;9.256;2023-04-08T07:51:13;97486.56;;;8.14;100.00
12178;BME280;6152;48.728;9.256;2023-04-08T07:53:39;97485.66;;;8.15;100.00
12178;BME280;6152;48.728;9.256;2023-04-08T07:56:13;97489.53;;;8.06;100.00
12178;BME280;6152;48.728;9.256;2023-04-08T07:58:40;97489.56;;;8.05;100.00
12178;BME280;6152;48.728;9.256;2023-04-08T08:01:22;97490.47;;;8.04;100.00
12178;BME280;6152;48.728;9.256;2023-04-08T08:03:50;97481.31;;;8.16;100.00
12178;BME280;6152;48.728;9.256;2023-04-08T08:06:17;97487.59;;;8.30;100.00
12178;BME280;6152;48.728;9.256;2023-04-08T08:08:43;97486.03;;;8.45;100.00
12178;BME280;6152;48.728;9.256;2023-04-08T08:11:09;97500.06;;;8.59;100.00
12178;BME280;6152;48.728;9.256;2023-04-08T08:13:35;97492.69;;;8.69;100.00
12178;BME280;6152;48.728;9.256;2023-04-08T08:16:02;97495.81;;;8.76;100.00
12178;BME280;6152;48.728;9.256;2023-04-08T08:18:28;97489.38;;;8.84;100.00
12178;BME280;6152;48.728;9.256;2023-04-08T08:20:54;97497.41;;;8.97;100.00
12178;BME280;6152;48.728;9.256;2023-04-08T08:23:20;97503.31;;;9.18;100.00
12178;BME280;6152;48.728;9.256;2023-04-08T08:25:46;97510.72;;;9.08;100.00
12178;BME280;6152;48.728;9.256;2023-04-08T08:28:13;97506.81;;;8.99;100.00
12178;BME280;6152;48.728;9.256;2023-04-08T08:30:39;97514.41;;;9.21;100.00
12178;BME280;6152;48.728;9.256;2023-04-08T08:33:05;97517.28;;;9.15;100.00
12178;BME280;6152;48.728;9.256;2023-04-08T08:35:31;97515.78;;;9.28;100.00
12178;BME280;6152;48.728;9.256;2023-04-08T08:37:57;97518.75;;;9.38;100.00
12178;BME280;6152;48.728;9.256;2023-04-08T08:40:23;97512.91;;;9.34;100.00
12178;BME280;6152;48.728;9.256;2023-04-08T08:42:52;97527.50;;;9.37;100.00
12178;BME280;6152;48.728;9.256;2023-04-08T08:45:19;97525.75;;;9.37;100.00
12178;BME280;6152;48.728;9.256;2023-04-08T08:47:46;97524.03;;;9.36;100.00
12178;BME280;6152;48.728;9.256;2023-04-08T08:50:12;97528.41;;;9.70;100.00
12178;BME280;6152;48.728;9.256;2023-04-08T08:52:38;97529.22;;;9.88;100.00
12178;BME280;6152;48.728;9.256;2023-04-08T08:55:04;97529.53;;;9.99;100.00
12178;BME280;6152;48.728;9.256;2023-04-08T08:57:31;97535.63;;;10.15;100.00
12178;BME280;6152;48.728;9.256;2023-04-08T08:59:57;97533.31;;;10.26;100.00
12178;BME280;6152;48.728;9.256;2023-04-08T09:02:30;97532.88;;;10.67;100.00
12178;BME280;6152;48.728;9.256;2023-04-08T09:07:25;97537.97;;;11.60;100.00
12178;BME280;6152;48.728;9.256;2023-04-08T09:09:55;97537.09;;;11.76;100.00
12178;BME280;6152;48.728;9.256;2023-04-08T09:12:23;97533.25;;;12.39;100.00
12178;BME280;6152;48.728;9.256;2023-04-08T09:14:49;97534.16;;;12.81;100.00
12178;BME280;6152;48.728;9.256;2023-04-08T09:17:30;97540.63;;;13.16;100.00
12178;BME280;6152;48.728;9.256;2023-04-08T09:20:12;97535.63;;;13.13;100.00
12178;BME280;6152;48.728;9.256;2023-04-08T09:25:32;97547.22;;;13.88;90.45
12178;BME280;6152;48.728;9.256;2023-04-08T09:27:59;97543.81;;;13.60;76.89
12178;BME280;6152;48.728;9.256;2023-04-08T09:30:26;97548.56;;;13.81;74.56
12178;BME280;6152;48.728;9.256;2023-04-08T09:32:56;97541.94;;;14.40;73.81
12178;BME280;6152;48.728;9.256;2023-04-08T09:35:23;97536.06;;;14.98;67.32
12178;BME280;6152;48.728;9.256;2023-04-08T09:37:50;97533.25;;;15.48;65.91
12178;BME280;6152;48.728;9.256;2023-04-08T09:40:17;97535.66;;;16.32;59.67
12178;BME280;6152;48.728;9.256;2023-04-08T09:42:47;97529.16;;;16.03;53.31
12178;BME280;6152;48.728;9.256;2023-04-08T09:45:17;97523.28;;;15.53;53.68
12178;BME280;6152;48.728;9.256;2023-04-08T09:48:11;97527.97;;;15.72;54.74
12178;BME280;6152;48.728;9.256;2023-04-08T09:50:42;97522.41;;;15.77;53.94
12178;BME280;6152;48.728;9.256;2023-04-08T09:53:18;97518.19;;;16.09;53.04
12178;BME280;6152;48.728;9.256;2023-04-08T09:55:49;97524.91;;;16.35;51.15
12178;BME280;6152;48.728;9.256;2023-04-08T09:58:20;97519.16;;;17.08;49.80
12178;BME280;6152;48.728;9.256;2023-04-08T10:00:50;97527.44;;;17.99;48.19
12178;BME280;6152;48.728;9.256;2023-04-08T10:03:29;97521.38;;;18.08;45.09
12178;BME280;6152;48.728;9.256;2023-04-08T10:06:00;97524.31;;;19.45;43.25
12178;BME280;6152;48.728;9.256;2023-04-08T10:08:29;97510.22;;;19.16;42.26
12178;BME280;6152;48.728;9.256;2023-04-08T10:10:56;97515.59;;;18.14;43.18
12178;BME280;6152;48.728;9.256;2023-04-08T10:13:23;97507.44;;;17.01;45.78
12178;BME280;6152;48.728;9.256;2023-04-08T10:15:50;97518.72;;;16.70;47.00
12178;BME280;6152;48.728;9.256;2023-04-08T10:20:46;97514.28;;;16.92;45.60
12178;BME280;6152;48.728;9.256;2023-04-08T10:23:15;97516.44;;;16.76;45.05
12178;BME280;6152;48.728;9.256;2023-04-08T10:25:46;97520.31;;;15.58;46.86
12178;BME280;6152;48.728;9.256;2023-04-08T10:30:57;97515.94;;;13.99;50.89
12178;BME280;6152;48.728;9.256;2023-04-08T10:33:31;97518.56;;;13.47;54.08
12178;BME280;6152;48.728;9.256;2023-04-08T10:36:12;97522.75;;;13.10;54.67
12178;BME280;6152;48.728;9.256;2023-04-08T10:38:40;97515.84;;;12.95;52.60
12178;BME280;6152;48.728;9.256;2023-04-08T10:41:10;97521.56;;;12.73;53.22
12178;BME280;6152;48.728;9.256;2023-04-08T10:43:38;97517.34;;;12.44;55.63
12178;BME280;6152;48.728;9.256;2023-04-08T10:46:05;97520.19;;;11.97;56.70
12178;BME280;6152;48.728;9.256;2023-04-08T10:48:31;97516.47;;;11.41;58.62
12178;BME280;6152;48.728;9.256;2023-04-08T10:53:29;97521.44;;;11.16;64.30
12178;BME280;6152;48.728;9.256;2023-04-08T10:56:09;97531.19;;;11.12;66.81
12178;BME280;6152;48.728;9.256;2023-04-08T10:58:47;97520.75;;;11.12;66.61
12178;BME280;6152;48.728;9.256;2023-04-08T11:01:14;97520.09;;;11.09;66.63
12178;BME280;6152;48.728;9.256;2023-04-08T11:03:41;97527.34;;;10.88;65.81
12178;BME280;6152;48.728;9.256;2023-04-08T11:06:08;97520.19;;;10.60;62.42
12178;BME280;6152;48.728;9.256;2023-04-08T11:08:35;97527.06;;;10.46;65.50
12178;BME280;6152;48.728;9.256;2023-04-08T11:11:02;97523.44;;;10.33;67.93
12178;BME280;6152;48.728;9.256;2023-04-08T11:13:29;97528.50;;;10.19;67.88
12178;BME280;6152;48.728;9.256;2023-04-08T11:15:58;97530.72;;;10.09;68.75
12178;BME280;6152;48.728;9.256;2023-04-08T11:18:25;97524.91;;;10.21;69.77
12178;BME280;6152;48.728;9.256;2023-04-08T11:20:52;97526.44;;;10.25;72.19
12178;BME280;6152;48.728;9.256;2023-04-08T11:23:19;97527.22;;;10.43;71.25
12178;BME280;6152;48.728;9.256;2023-04-08T11:25:47;97521.09;;;10.59;73.31
12178;BME280;6152;48.728;9.256;2023-04-08T11:28:14;97529.34;;;10.83;66.39
12178;BME280;6152;48.728;9.256;2023-04-08T11:30:41;97524.72;;;10.88;61.00
12178;BME280;6152;48.728;9.256;2023-04-08T11:33:07;97514.06;;;10.93;62.05
12178;BME280;6152;48.728;9.256;2023-04-08T11:35:35;97521.78;;;11.10;63.23
12178;BME280;6152;48.728;9.256;2023-04-08T11:38:04;97530.47;;;11.40;61.08
12178;BME280;6152;48.728;9.256;2023-04-08T11:40:30;97527.91;;;11.54;56.25
12178;BME280;6152;48.728;9.256;2023-04-08T11:42:56;97531.97;;;11.44;57.10
12178;BME280;6152;48.728;9.256;2023-04-08T11:45:22;97529.75;;;11.52;56.73
12178;BME280;6152;48.728;9.256;2023-04-08T11:47:49;97527.53;;;11.60;58.30
12178;BME280;6152;48.728;9.256;2023-04-08T11:50:25;97522.50;;;11.57;54.68
12178;BME280;6152;48.728;9.256;2023-04-08T11:52:54;97523.03;;;11.48;55.79
12178;BME280;6152;48.728;9.256;2023-04-08T11:55:26;97525.59;;;11.34;57.22
12178;BME280;6152;48.728;9.256;2023-04-08T11:57:54;97525.66;;;11.03;58.13
12178;BME280;6152;48.728;9.256;2023-04-08T12:00:22;97512.34;;;11.07;60.82
12178;BME280;6152;48.728;9.256;2023-04-08T12:02:48;97519.34;;;10.91;61.30
12178;BME280;6152;48.728;9.256;2023-04-08T12:05:14;97523.66;;;10.92;63.52
12178;BME280;6152;48.728;9.256;2023-04-08T12:07:41;97517.59;;;10.92;64.99
12178;BME280;6152;48.728;9.256;2023-04-08T12:10:08;97520.09;;;11.09;65.85
12178;BME280;6152;48.728;9.256;2023-04-08T12:12:35;97522.69;;;11.09;65.47
12178;BME280;6152;48.728;9.256;2023-04-08T12:15:01;97530.34;;;10.81;66.62
12178;BME280;6152;48.728;9.256;2023-04-08T12:17:28;97524.91;;;10.85;69.08
12178;BME280;6152;48.728;9.256;2023-04-08T12:19:54;97515.72;;;10.94;72.00
12178;BME280;6152;48.728;9.256;2023-04-08T12:22:20;97522.94;;;11.20;71.51
12178;BME280;6152;48.728;9.256;2023-04-08T12:24:46;97528.81;;;11.24;70.18
12178;BME280;6152;48.728;9.256;2023-04-08T12:27:12;97529.00;;;11.05;70.84
12178;BME280;6152;48.728;9.256;2023-04-08T12:29:38;97529.41;;;11.13;71.64
12178;BME280;6152;48.728;9.256;2023-04-08T12:32:05;97535.47;;;11.13;66.73
12178;BME280;6152;48.728;9.256;2023-04-08T12:34:31;97533.75;;;11.28;66.38
12178;BME280;6152;48.728;9.256;2023-04-08T12:36:58;97530.16;;;11.15;67.54
12178;BME280;6152;48.728;9.256;2023-04-08T12:39:24;97528.66;;;11.11;68.34
12178;BME280;6152;48.728;9.256;2023-04-08T12:41:50;97533.09;;;11.25;71.61
12178;BME280;6152;48.728;9.256;2023-04-08T12:44:16;97530.59;;;11.23;67.50
12178;BME280;6152;48.728;9.256;2023-04-08T12:46:43;97529.63;;;11.24;71.18
12178;BME280;6152;48.728;9.256;2023-04-08T12:49:09;97526.13;;;11.25;70.90
12178;BME280;6152;48.728;9.256;2023-04-08T12:51:35;97526.59;;;11.47;71.59
12178;BME280;6152;48.728;9.256;2023-04-08T12:54:02;97529.06;;;11.64;70.79
12178;BME280;6152;48.728;9.256;2023-04-08T12:56:31;97524.56;;;11.82;64.75
12178;BME280;6152;48.728;9.256;2023-04-08T12:58:58;97529.88;;;11.95;63.11
12178;BME280;6152;48.728;9.256;2023-04-08T13:01:24;97520.19;;;11.97;62.51
12178;BME280;6152;48.728;9.256;2023-04-08T13:03:50;97521.94;;;11.96;62.15
12178;BME280;6152;48.728;9.256;2023-04-08T13:06:16;97521.31;;;12.07;63.65
12178;BME280;6152;48.728;9.256;2023-04-08T13:08:43;97530.09;;;12.20;62.95
12178;BME280;6152;48.728;9.256;2023-04-08T13:11:09;97527.56;;;12.04;62.92
12178;BME280;6152;48.728;9.256;2023-04-08T13:13:35;97529.13;;;11.79;64.59
12178;BME280;6152;48.728;9.256;2023-04-08T13:16:01;97525.97;;;11.88;63.45
12178;BME280;6152;48.728;9.256;2023-04-08T13:18:28;97525.03;;;11.89;63.06
12178;BME280;6152;48.728;9.256;2023-04-08T13:20:55;97517.47;;;11.54;64.43
12178;BME280;6152;48.728;9.256;2023-04-08T13:23:23;97524.06;;;11.46;66.59
12178;BME280;6152;48.728;9.256;2023-04-08T13:25:49;97530.94;;;11.47;67.07
12178;BME280;6152;48.728;9.256;2023-04-08T13:28:16;97524.41;;;11.40;66.93
12178;BME280;6152;48.728;9.256;2023-04-08T13:30:42;97533.19;;;11.23;68.44